Time;durP1;ratioP1;P1;durP2;ratioP2;P2;SDS_P1;SDS_P2;PMS_P1;PMS_P2;Temp;Humidity;BMP_temperature;BMP_pressure;BME280_temperature;BME280_humidity;BME280_pressure;Samples;Min_cycle;Max_cycle;Signal;HPM_P1;HPM_P2
2023/07/31 00:02:17;;;;;;;15.18;5.88;;;17.30;99.90;;;;;;5078745;28;20208;-81
2023/07/31 00:04:43;;;;;;;12.80;5.63;;;17.30;99.90;;;;;;5077087;28;20234;-80
2023/07/31 00:07:08;;;;;;;16.85;6.10;;;17.30;99.90;;;;;;5077026;28;20207;-79
2023/07/31 00:09:34;;;;;;;13.18;5.80;;;17.40;99.90;;;;;;5077781;28;20655;-79
2023/07/31 00:12:00;;;;;;;13.70;5.63;;;17.40;99.90;;;;;;5078806;28;20172;-79
2023/07/31 00:14:25;;;;;;;16.50;5.93;;;17.40;99.90;;;;;;5079372;28;20161;-79
2023/07/31 00:16:51;;;;;;;10.90;5.90;;;17.50;99.90;;;;;;5077405;28;20206;-79
2023/07/31 00:19:17;;;;;;;11.85;5.78;;;17.50;99.90;;;;;;5059067;28;20650;-80
2023/07/31 00:21:43;;;;;;;12.10;5.90;;;17.60;99.90;;;;;;5078152;28;20213;-79
2023/07/31 00:24:09;;;;;;;11.77;5.55;;;17.60;99.90;;;;;;5077622;28;20556;-78
2023/07/31 00:26:35;;;;;;;12.52;5.43;;;17.60;99.90;;;;;;5059532;28;20176;-79
2023/07/31 00:29:00;;;;;;;13.75;6.15;;;17.60;99.90;;;;;;5077541;28;20200;-79
2023/07/31 00:31:26;;;;;;;12.95;5.97;;;17.60;99.90;;;;;;5077379;28;20164;-80
2023/07/31 00:33:52;;;;;;;13.60;5.65;;;17.60;99.90;;;;;;5078163;28;20676;-80
2023/07/31 00:36:18;;;;;;;11.18;5.75;;;17.70;99.90;;;;;;5078465;28;20176;-81
2023/07/31 00:38:44;;;;;;;14.77;5.70;;;17.70;99.90;;;;;;5079107;28;20229;-79
2023/07/31 00:41:09;;;;;;;13.93;5.90;;;17.60;99.90;;;;;;5079914;28;20251;-80
2023/07/31 00:43:35;;;;;;;13.43;5.95;;;17.60;99.90;;;;;;5079541;28;20224;-80
2023/07/31 00:46:01;;;;;;;15.07;6.28;;;17.70;99.90;;;;;;5062455;28;20168;-81
2023/07/31 00:48:27;;;;;;;10.70;5.60;;;17.70;99.90;;;;;;5079912;28;20172;-80
2023/07/31 00:50:52;;;;;;;11.27;5.50;;;17.60;99.90;;;;;;5082289;28;20188;-79
2023/07/31 00:53:18;;;;;;;16.58;6.40;;;17.60;99.90;;;;;;5083606;28;20164;-79
2023/07/31 00:55:44;;;;;;;15.63;5.65;;;17.60;99.90;;;;;;5082848;28;20685;-78
2023/07/31 00:58:10;;;;;;;10.30;5.53;;;17.60;99.90;;;;;;5082175;28;20292;-79
2023/07/31 01:00:36;;;;;;;11.70;5.82;;;17.60;99.90;;;;;;5081138;28;20204;-79
2023/07/31 01:03:01;;;;;;;14.02;6.20;;;17.60;99.90;;;;;;5079833;28;20261;-78
2023/07/31 01:05:38;;;;;;;9.25;5.82;;;17.60;99.90;;;;;;5061294;28;20169;-79
2023/07/31 01:08:12;;;;;;;8.38;5.53;;;17.60;99.90;;;;;;5061368;28;20176;-79
2023/07/31 01:11:05;;;;;;;11.45;5.38;;;17.70;99.90;;;;;;5058710;28;20168;-79
2023/07/31 01:13:31;;;;;;;12.02;5.63;;;17.70;99.90;;;;;;5076345;28;20185;-79
2023/07/31 01:15:56;;;;;;;15.70;5.70;;;17.70;99.90;;;;;;5075752;28;20179;-79
2023/07/31 01:18:22;;;;;;;9.32;5.40;;;17.60;99.90;;;;;;5075920;28;20259;-78
2023/07/31 01:20:57;;;;;;;11.88;5.45;;;17.70;99.90;;;;;;5076367;28;20173;-79
2023/07/31 01:23:49;;;;;;;12.63;5.57;;;17.60;99.90;;;;;;5075533;28;20204;-78
2023/07/31 01:26:20;;;;;;;12.85;5.70;;;17.70;99.90;;;;;;5075294;28;20245;-78
2023/07/31 01:29:08;;;;;;;14.07;5.53;;;17.70;99.90;;;;;;5075328;28;20179;-78
2023/07/31 01:31:36;;;;;;;14.02;5.60;;;17.70;99.90;;;;;;5075052;28;20239;-78
2023/07/31 01:34:02;;;;;;;11.77;5.78;;;17.70;99.90;;;;;;5075236;28;20243;-78
2023/07/31 01:36:30;;;;;;;10.57;5.90;;;17.70;99.90;;;;;;5075172;28;20204;-79
2023/07/31 01:39:00;;;;;;;11.03;5.37;;;17.70;99.90;;;;;;5075591;28;20172;-79
2023/07/31 01:41:26;;;;;;;9.57;5.03;;;17.70;99.90;;;;;;5075388;28;20176;-78
2023/07/31 01:43:51;;;;;;;10.88;5.80;;;17.70;99.90;;;;;;5075223;28;20208;-78
2023/07/31 01:46:17;;;;;;;12.45;5.45;;;17.70;99.90;;;;;;5074852;28;20168;-78
2023/07/31 01:48:42;;;;;;;11.95;5.60;;;17.60;99.90;;;;;;5075357;28;20570;-78
2023/07/31 01:51:08;;;;;;;10.23;5.95;;;17.70;99.90;;;;;;5075617;28;20176;-78
2023/07/31 01:53:34;;;;;;;14.60;5.80;;;17.70;99.90;;;;;;5075408;28;20287;-79
2023/07/31 01:55:59;;;;;;;10.80;6.07;;;17.70;99.90;;;;;;5075029;28;20196;-78
2023/07/31 01:58:25;;;;;;;11.63;5.47;;;17.70;99.90;;;;;;5075335;28;20196;-78
2023/07/31 02:00:51;;;;;;;10.20;5.60;;;17.70;99.90;;;;;;5074651;28;20526;-78
2023/07/31 02:03:16;;;;;;;13.60;5.70;;;17.70;99.90;;;;;;5074948;28;20236;-79
2023/07/31 02:05:46;;;;;;;8.30;5.75;;;17.70;99.90;;;;;;5075632;28;20180;-78
2023/07/31 02:08:12;;;;;;;13.57;5.82;;;17.70;99.90;;;;;;5075905;28;20176;-77
2023/07/31 02:10:37;;;;;;;10.02;5.78;;;17.70;99.90;;;;;;5075947;28;20180;-78
2023/07/31 02:13:03;;;;;;;15.68;5.75;;;17.70;99.90;;;;;;5076139;28;20528;-78
2023/07/31 02:15:30;;;;;;;16.23;6.47;;;17.70;99.90;;;;;;5076343;28;20172;-78
2023/07/31 02:17:56;;;;;;;10.40;5.85;;;17.70;99.90;;;;;;5076698;28;20177;-78
2023/07/31 02:20:21;;;;;;;15.20;6.03;;;17.70;99.90;;;;;;5076735;28;20179;-78
2023/07/31 02:22:47;;;;;;;11.23;6.07;;;17.70;99.90;;;;;;5076833;28;20698;-78
2023/07/31 02:25:12;;;;;;;12.70;5.93;;;17.80;99.90;;;;;;5076615;28;20620;-78
2023/07/31 02:27:38;;;;;;;13.55;5.88;;;17.70;99.90;;;;;;5075792;28;20650;-79
2023/07/31 02:30:04;;;;;;;11.68;6.53;;;17.70;99.90;;;;;;5075467;28;20200;-78
2023/07/31 02:32:30;;;;;;;10.45;5.90;;;17.80;99.90;;;;;;5075418;28;20261;-78
2023/07/31 02:34:55;;;;;;;8.63;6.13;;;17.80;99.90;;;;;;5074880;28;20173;-78
2023/07/31 02:37:21;;;;;;;9.80;5.38;;;17.80;99.90;;;;;;5074322;28;20276;-78
2023/07/31 02:39:46;;;;;;;11.73;6.22;;;17.80;99.90;;;;;;5074313;28;20172;-77
2023/07/31 02:42:13;;;;;;;11.13;6.10;;;17.80;99.90;;;;;;5074278;28;20322;-78
2023/07/31 02:44:39;;;;;;;11.82;6.75;;;17.80;99.90;;;;;;5075102;28;20156;-78
2023/07/31 02:47:04;;;;;;;11.05;5.45;;;17.90;99.90;;;;;;5076022;28;20506;-78
2023/07/31 02:49:30;;;;;;;8.02;5.10;;;17.80;99.90;;;;;;5075875;28;20170;-78
2023/07/31 02:51:55;;;;;;;9.35;5.53;;;17.70;99.90;;;;;;5057394;28;20182;-79
2023/07/31 02:54:21;;;;;;;7.78;5.30;;;17.70;99.90;;;;;;5074631;28;20165;-78
2023/07/31 02:56:47;;;;;;;8.10;5.63;;;17.70;99.90;;;;;;5075296;28;20192;-78
2023/07/31 02:59:13;;;;;;;10.55;5.85;;;17.70;99.90;;;;;;5074118;28;20183;-77
2023/07/31 03:01:39;;;;;;;7.20;5.57;;;17.70;99.90;;;;;;5075689;28;20168;-78
2023/07/31 03:04:04;;;;;;;7.63;5.10;;;17.70;99.90;;;;;;5074482;28;20212;-78
2023/07/31 03:06:30;;;;;;;7.55;4.65;;;17.80;99.90;;;;;;5074531;28;20245;-78
2023/07/31 03:08:55;;;;;;;6.55;4.63;;;17.70;99.90;;;;;;5074777;28;20173;-78
2023/07/31 03:11:21;;;;;;;7.35;4.50;;;17.70;99.90;;;;;;5075110;28;20638;-78
2023/07/31 03:13:47;;;;;;;7.57;4.82;;;17.70;99.90;;;;;;5077077;28;20218;-78
2023/07/31 03:16:12;;;;;;;6.72;4.70;;;17.70;99.90;;;;;;5077352;28;20232;-79
2023/07/31 03:18:38;;;;;;;7.57;4.70;;;17.70;99.90;;;;;;5076582;28;20616;-78
2023/07/31 03:21:04;;;;;;;7.03;4.88;;;17.70;99.90;;;;;;5075126;28;20168;-78
2023/07/31 03:23:30;;;;;;;7.57;4.72;;;17.70;99.90;;;;;;5075903;28;20572;-78
2023/07/31 03:26:00;;;;;;;6.15;5.00;;;17.70;99.90;;;;;;5074900;28;20251;-78
2023/07/31 03:28:26;;;;;;;8.52;4.63;;;17.70;99.90;;;;;;5075274;28;20172;-78
2023/07/31 03:30:52;;;;;;;6.07;4.70;;;17.60;99.90;;;;;;5076872;28;20249;-78
2023/07/31 03:33:18;;;;;;;6.65;4.97;;;17.60;99.90;;;;;;5075939;28;20164;-80
2023/07/31 03:35:43;;;;;;;6.43;4.78;;;17.50;99.90;;;;;;5074570;28;20179;-78
2023/07/31 03:38:09;;;;;;;8.93;4.77;;;17.40;99.90;;;;;;5075253;28;20176;-77
2023/07/31 03:40:35;;;;;;;9.00;5.25;;;17.40;99.90;;;;;;5073677;28;20230;-78
2023/07/31 03:43:00;;;;;;;6.93;4.95;;;17.50;99.90;;;;;;5073410;28;20231;-79
2023/07/31 03:45:26;;;;;;;6.15;4.82;;;17.50;99.90;;;;;;5074514;28;20230;-78
2023/07/31 03:47:51;;;;;;;9.02;5.55;;;17.60;99.90;;;;;;5074711;28;20510;-78
2023/07/31 03:50:17;;;;;;;8.40;5.22;;;17.50;99.90;;;;;;5079578;28;20180;-78
2023/07/31 03:52:43;;;;;;;6.78;5.03;;;17.50;99.90;;;;;;5074275;28;20200;-79
2023/07/31 03:55:08;;;;;;;6.05;5.03;;;17.40;99.90;;;;;;5073957;28;20180;-79
2023/07/31 03:57:34;;;;;;;8.97;5.47;;;17.40;99.90;;;;;;5054998;28;20192;-77
2023/07/31 03:59:59;;;;;;;7.23;5.10;;;17.30;99.90;;;;;;5073140;28;20628;-77
2023/07/31 04:02:25;;;;;;;9.00;5.47;;;17.30;99.90;;;;;;5073066;28;20208;-77
2023/07/31 04:04:51;;;;;;;5.73;5.17;;;17.30;99.90;;;;;;5072895;28;20177;-77
2023/07/31 04:07:16;;;;;;;6.40;5.10;;;17.30;99.90;;;;;;5054844;28;20638;-77
2023/07/31 04:09:42;;;;;;;6.23;4.97;;;17.30;99.90;;;;;;5072253;28;20176;-77
2023/07/31 04:12:08;;;;;;;6.80;4.80;;;17.20;99.90;;;;;;5072467;28;20310;-77
2023/07/31 04:14:33;;;;;;;8.27;4.97;;;17.10;99.90;;;;;;5072672;28;20204;-78
2023/07/31 04:16:59;;;;;;;11.73;5.50;;;17.10;99.90;;;;;;5073171;28;20717;-78
2023/07/31 04:19:24;;;;;;;8.67;4.93;;;17.10;99.90;;;;;;5072610;28;20263;-78
2023/07/31 04:21:50;;;;;;;8.73;5.33;;;17.20;99.90;;;;;;5072707;28;20616;-78
2023/07/31 04:24:22;;;;;;;9.13;5.47;;;17.10;99.90;;;;;;5072465;28;20169;-78
2023/07/31 04:26:47;;;;;;;8.23;5.07;;;17.10;99.90;;;;;;5073141;28;20187;-78
2023/07/31 04:29:13;;;;;;;7.97;5.43;;;17.10;99.90;;;;;;5073118;28;20590;-79
2023/07/31 04:31:38;;;;;;;9.43;5.07;;;17.10;99.90;;;;;;5076455;28;20165;-79
2023/07/31 04:34:04;;;;;;;8.17;5.40;;;17.10;99.90;;;;;;5075805;28;20201;-81
2023/07/31 04:36:30;;;;;;;9.57;5.33;;;17.20;99.90;;;;;;5075924;28;20171;-80
2023/07/31 04:38:55;;;;;;;6.70;5.40;;;17.20;99.90;;;;;;5075926;28;20255;-80
2023/07/31 04:41:21;;;;;;;5.70;4.40;;;17.20;99.90;;;;;;5075636;28;20588;-80
2023/07/31 04:43:47;;;;;;;8.03;4.80;;;17.30;99.90;;;;;;5075768;28;20236;-80
2023/07/31 04:46:12;;;;;;;7.97;5.10;;;17.30;99.90;;;;;;5075475;28;20175;-80
2023/07/31 04:48:38;;;;;;;9.07;4.40;;;17.30;99.90;;;;;;5076311;28;20195;-81
2023/07/31 04:51:03;;;;;;;5.63;4.90;;;17.30;99.90;;;;;;5075757;28;20180;-80
2023/07/31 04:53:29;;;;;;;6.87;4.70;;;17.30;99.90;;;;;;5075424;28;20619;-79
2023/07/31 04:55:54;;;;;;;9.87;4.80;;;17.40;99.90;;;;;;5075401;28;20172;-81
2023/07/31 04:58:20;;;;;;;6.20;5.00;;;17.40;99.90;;;;;;5075558;28;20560;-81
2023/07/31 05:00:46;;;;;;;6.67;4.53;;;17.40;99.90;;;;;;5057768;28;20176;-79
2023/07/31 05:03:11;;;;;;;9.27;4.93;;;17.40;99.90;;;;;;5075440;28;20539;-80
2023/07/31 05:05:37;;;;;;;5.80;4.33;;;17.40;99.90;;;;;;5057515;28;20251;-78
2023/07/31 05:08:02;;;;;;;10.30;5.10;;;17.30;99.90;;;;;;5074482;28;20173;-80
2023/07/31 05:10:28;;;;;;;7.80;5.23;;;17.20;99.90;;;;;;5075550;28;20190;-80
2023/07/31 05:12:54;;;;;;;8.03;5.10;;;17.10;99.90;;;;;;5075464;28;20699;-79
2023/07/31 05:15:19;;;;;;;8.57;5.13;;;17.10;99.90;;;;;;5075147;28;20168;-79
2023/07/31 05:17:45;;;;;;;6.30;5.37;;;17.10;99.90;;;;;;5075757;28;20598;-80
2023/07/31 05:20:11;;;;;;;9.17;5.93;;;17.10;99.90;;;;;;5057197;28;20517;-79
2023/07/31 05:22:36;;;;;;;8.87;5.53;;;17.00;99.90;;;;;;5074679;28;20212;-80
2023/07/31 05:25:02;;;;;;;6.30;4.83;;;17.00;99.90;;;;;;5074539;28;20177;-80
2023/07/31 05:27:28;;;;;;;6.97;5.00;;;17.00;99.90;;;;;;5075419;28;20225;-80
2023/07/31 05:29:53;;;;;;;6.60;5.40;;;16.90;99.90;;;;;;5075268;28;20195;-80
2023/07/31 05:32:19;;;;;;;10.17;5.40;;;16.90;99.90;;;;;;5074936;28;20180;-81
2023/07/31 05:34:44;;;;;;;7.17;4.93;;;16.90;99.90;;;;;;5074932;28;20207;-79
2023/07/31 05:37:12;;;;;;;6.97;4.73;;;16.90;99.90;;;;;;5074493;28;20169;-81
2023/07/31 05:39:37;;;;;;;9.97;5.47;;;16.90;99.90;;;;;;5074604;28;20177;-81
2023/07/31 05:42:03;;;;;;;7.07;4.77;;;16.80;99.90;;;;;;5073200;28;20294;-80
2023/07/31 05:44:29;;;;;;;7.13;4.37;;;16.80;99.90;;;;;;5074782;28;20609;-80
2023/07/31 05:46:54;;;;;;;8.97;5.03;;;16.90;99.90;;;;;;5074770;28;20225;-80
2023/07/31 05:49:20;;;;;;;10.03;4.63;;;16.90;99.90;;;;;;5074095;28;20184;-81
2023/07/31 05:51:45;;;;;;;5.93;4.70;;;16.90;99.90;;;;;;5056208;28;20172;-81
2023/07/31 05:54:11;;;;;;;7.63;4.50;;;16.90;99.90;;;;;;5073911;28;20580;-80
2023/07/31 05:56:36;;;;;;;8.47;4.60;;;16.90;99.90;;;;;;5056449;28;20189;-81
2023/07/31 05:59:02;;;;;;;6.73;4.73;;;16.90;99.90;;;;;;5074325;28;20177;-81
2023/07/31 06:01:28;;;;;;;8.90;4.47;;;16.90;99.90;;;;;;5074180;28;20219;-81
2023/07/31 06:03:54;;;;;;;6.17;4.83;;;16.90;99.90;;;;;;5073842;28;20261;-80
2023/07/31 06:06:19;;;;;;;6.70;4.40;;;17.00;99.90;;;;;;5073056;28;20257;-81
2023/07/31 06:08:45;;;;;;;5.83;4.27;;;17.00;99.90;;;;;;5073631;28;20693;-81
2023/07/31 06:11:11;;;;;;;6.40;4.87;;;17.00;99.90;;;;;;5073719;28;20525;-79
2023/07/31 06:13:36;;;;;;;6.27;4.67;;;17.10;99.90;;;;;;5073583;28;20249;-79
2023/07/31 06:16:05;;;;;;;7.73;4.60;;;17.10;99.90;;;;;;5073692;28;20192;-80
2023/07/31 06:18:32;;;;;;;9.80;4.73;;;17.10;99.90;;;;;;5055460;28;20173;-81
2023/07/31 06:20:57;;;;;;;8.73;5.10;;;17.10;99.90;;;;;;5072679;28;20267;-82
2023/07/31 06:23:23;;;;;;;6.97;4.47;;;17.10;99.90;;;;;;5073007;28;20212;-83
2023/07/31 06:25:49;;;;;;;6.77;4.20;;;17.10;99.90;;;;;;5073443;28;20204;-80
2023/07/31 06:28:14;;;;;;;7.20;4.43;;;17.20;99.90;;;;;;5055284;28;20179;-82
2023/07/31 06:30:40;;;;;;;7.40;4.83;;;17.30;99.90;;;;;;5073521;28;20172;-81
2023/07/31 06:33:05;;;;;;;7.03;4.80;;;17.30;99.90;;;;;;5073515;28;20181;-80
2023/07/31 06:35:31;;;;;;;7.90;4.47;;;17.40;99.90;;;;;;5073093;28;20179;-80
2023/07/31 06:37:57;;;;;;;8.07;4.37;;;17.40;99.90;;;;;;5073035;28;20214;-82
2023/07/31 06:40:22;;;;;;;8.47;4.20;;;17.50;99.90;;;;;;5072611;28;20172;-81
2023/07/31 06:42:48;;;;;;;9.60;4.60;;;17.50;99.90;;;;;;5072682;28;20524;-81
2023/07/31 06:45:14;;;;;;;6.10;4.32;;;17.60;99.90;;;;;;5073439;28;20168;-80
2023/07/31 06:47:39;;;;;;;7.63;4.47;;;17.60;99.90;;;;;;5055105;28;20640;-80
2023/07/31 06:50:05;;;;;;;7.93;4.35;;;17.60;99.90;;;;;;5072438;28;20185;-80
2023/07/31 06:52:31;;;;;;;6.03;4.13;;;17.70;99.90;;;;;;5072152;28;20176;-80
2023/07/31 06:55:16;;;;;;;7.88;4.25;;;17.90;99.90;;;;;;5072517;28;20533;-81
2023/07/31 06:57:42;;;;;;;7.07;3.75;;;18.00;99.90;;;;;;5073415;28;20311;-81
2023/07/31 07:00:08;;;;;;;6.35;4.20;;;18.20;99.90;;;;;;5073215;28;20275;-81
2023/07/31 07:02:34;;;;;;;6.18;4.00;;;18.20;99.90;;;;;;5072859;28;20192;-80
2023/07/31 07:04:59;;;;;;;8.23;4.13;;;18.40;99.90;;;;;;5072492;28;20168;-79
2023/07/31 07:07:25;;;;;;;8.02;4.20;;;18.40;99.90;;;;;;5072985;28;20176;-80
2023/07/31 07:09:51;;;;;;;5.38;4.00;;;18.60;99.90;;;;;;5072511;28;20179;-81
2023/07/31 07:12:16;;;;;;;7.72;4.20;;;18.50;99.90;;;;;;5072548;28;20247;-78
2023/07/31 07:14:42;;;;;;;9.50;4.20;;;18.60;99.90;;;;;;5073477;28;20176;-80
2023/07/31 07:17:07;;;;;;;8.98;3.67;;;18.60;99.90;;;;;;5075288;28;20172;-79
2023/07/31 07:19:33;;;;;;;5.53;4.13;;;18.70;99.90;;;;;;5073825;28;20173;-80
2023/07/31 07:22:01;;;;;;;8.50;3.63;;;18.80;99.90;;;;;;5056176;28;20169;-80
2023/07/31 07:24:27;;;;;;;4.82;3.67;;;18.90;99.90;;;;;;5072769;28;20658;-79
2023/07/31 07:26:53;;;;;;;4.78;3.60;;;18.80;99.90;;;;;;5073898;28;20207;-82
2023/07/31 07:29:18;;;;;;;3.83;3.30;;;18.90;99.90;;;;;;5074525;28;20168;-83
2023/07/31 07:31:44;;;;;;;6.85;4.10;;;18.60;99.90;;;;;;5056348;28;20334;-82
2023/07/31 07:34:09;;;;;;;6.22;3.55;;;18.60;99.90;;;;;;5073233;28;20183;-82
2023/07/31 07:36:35;;;;;;;6.63;4.07;;;18.60;99.90;;;;;;5054620;28;20567;-81
2023/07/31 07:39:00;;;;;;;8.00;3.75;;;18.60;99.90;;;;;;5072798;28;20164;-81
2023/07/31 07:41:26;;;;;;;5.43;3.58;;;18.70;99.90;;;;;;5073026;28;20516;-82
2023/07/31 07:43:52;;;;;;;4.88;3.88;;;18.80;99.90;;;;;;5074853;28;20204;-82
2023/07/31 07:46:17;;;;;;;7.78;3.65;;;18.80;99.90;;;;;;5074987;28;20730;-83
2023/07/31 07:48:43;;;;;;;5.22;3.55;;;18.90;99.90;;;;;;5074320;28;20164;-82
2023/07/31 07:51:08;;;;;;;7.78;3.83;;;18.80;99.90;;;;;;5056952;28;20188;-82
2023/07/31 07:53:34;;;;;;;8.15;3.38;;;18.80;99.90;;;;;;5074856;28;20192;-83
2023/07/31 07:55:59;;;;;;;4.70;3.28;;;18.80;99.90;;;;;;5075278;28;20165;-82
2023/07/31 07:58:25;;;;;;;7.10;3.92;;;18.70;99.90;;;;;;5076601;28;20176;-81
2023/07/31 08:00:51;;;;;;;4.97;3.75;;;18.70;99.90;;;;;;5077114;28;20501;-82
2023/07/31 08:03:17;;;;;;;4.47;3.78;;;18.70;99.90;;;;;;5057542;28;20216;-83
2023/07/31 08:05:44;;;;;;;5.95;3.65;;;18.80;99.90;;;;;;5078839;28;20178;-82
2023/07/31 08:08:14;;;;;;;9.30;3.80;;;18.70;99.90;;;;;;5080396;28;20226;-82
2023/07/31 08:10:40;;;;;;;5.32;3.20;;;18.70;99.90;;;;;;5080986;28;20160;-82
2023/07/31 08:13:06;;;;;;;5.40;3.42;;;18.80;99.90;;;;;;5078728;28;20234;-81
2023/07/31 08:15:31;;;;;;;5.80;3.10;;;18.80;99.90;;;;;;5080732;28;20200;-82
2023/07/31 08:17:57;;;;;;;10.52;3.67;;;18.80;99.90;;;;;;5082425;28;20169;-82
2023/07/31 08:20:22;;;;;;;6.63;3.72;;;18.90;99.90;;;;;;5083780;28;20256;-82
2023/07/31 08:22:48;;;;;;;5.65;3.55;;;19.00;99.90;;;;;;5082695;28;20211;-82
2023/07/31 08:25:14;;;;;;;5.60;3.13;;;19.00;99.90;;;;;;5080767;28;20191;-83
2023/07/31 08:27:43;;;;;;;7.93;3.33;;;19.00;99.90;;;;;;5077985;28;20173;-83
2023/07/31 08:30:09;;;;;;;5.03;3.50;;;18.90;99.90;;;;;;5077163;28;20169;-82
2023/07/31 08:32:35;;;;;;;5.75;3.20;;;18.70;99.90;;;;;;5075409;28;20601;-82
2023/07/31 08:35:00;;;;;;;5.53;3.45;;;18.70;99.90;;;;;;5076607;28;20196;-83
2023/07/31 08:37:26;;;;;;;5.63;3.55;;;18.70;99.90;;;;;;5077391;28;20560;-81
2023/07/31 08:39:51;;;;;;;6.15;3.50;;;18.70;99.90;;;;;;5077935;28;20172;-83
2023/07/31 08:42:17;;;;;;;5.93;3.60;;;18.90;99.90;;;;;;5076856;28;20663;-82
2023/07/31 08:44:43;;;;;;;5.93;3.65;;;18.80;99.90;;;;;;5076079;28;20169;-82
2023/07/31 08:47:10;;;;;;;7.13;3.70;;;18.70;99.90;;;;;;5057322;28;20749;-83
2023/07/31 08:49:38;;;;;;;6.07;3.40;;;18.60;99.90;;;;;;5075771;28;20169;-83
2023/07/31 08:52:04;;;;;;;4.10;3.33;;;18.60;99.90;;;;;;5057958;28;20228;-83
2023/07/31 08:54:32;;;;;;;4.00;3.20;;;18.60;99.90;;;;;;5075738;28;20651;-83
2023/07/31 08:56:59;;;;;;;4.57;3.85;;;18.50;99.90;;;;;;5075384;28;20180;-83
2023/07/31 08:59:28;;;;;;;6.13;4.13;;;18.50;99.90;;;;;;5075496;28;20172;-84
2023/07/31 09:01:57;;;;;;;6.47;4.00;;;18.60;99.90;;;;;;5075579;28;20620;-84
2023/07/31 09:04:24;;;;;;;5.13;3.67;;;18.70;99.90;;;;;;5075335;28;20175;-83
2023/07/31 09:06:55;;;;;;;4.10;3.72;;;18.70;99.90;;;;;;5075029;28;20663;-83
2023/07/31 09:09:21;;;;;;;6.68;3.85;;;18.70;99.90;;;;;;5057315;28;20173;-83
2023/07/31 09:11:46;;;;;;;8.63;3.97;;;18.80;99.90;;;;;;5074948;28;20168;-84
2023/07/31 09:14:14;;;;;;;6.95;4.25;;;18.90;99.90;;;;;;5074747;28;20589;-84
2023/07/31 09:17:12;;;;;;;9.18;4.07;;;19.00;99.90;;;;;;5075468;28;20173;-83
2023/07/31 09:19:37;;;;;;;6.97;3.95;;;19.00;99.90;;;;;;4995012;28;20646;-83
2023/07/31 09:22:04;;;;;;;7.00;4.13;;;19.00;99.90;;;;;;4994446;28;20179;-84
2023/07/31 09:24:32;;;;;;;5.22;4.10;;;19.10;99.90;;;;;;4995369;28;20179;-83
2023/07/31 09:26:59;;;;;;;5.22;4.00;;;19.30;99.90;;;;;;4995985;28;20183;-83
2023/07/31 09:29:26;;;;;;;7.18;3.90;;;19.40;99.90;;;;;;4994872;28;20192;-85
2023/07/31 09:31:53;;;;;;;6.70;4.25;;;19.60;99.90;;;;;;4994840;28;20600;-84
2023/07/31 09:34:19;;;;;;;5.57;4.03;;;20.00;99.90;;;;;;4994286;28;20178;-84
2023/07/31 09:36:54;;;;;;;5.55;3.97;;;19.80;99.90;;;;;;4994156;28;20187;-84
2023/07/31 09:39:20;;;;;;;5.50;4.30;;;19.70;99.90;;;;;;4977901;28;20649;-83
2023/07/31 09:41:53;;;;;;;7.43;4.63;;;19.60;99.90;;;;;;4993754;28;20407;-83
2023/07/31 09:44:19;;;;;;;6.00;4.38;;;19.50;99.90;;;;;;4992972;28;20277;-83
2023/07/31 09:46:45;;;;;;;7.97;4.50;;;19.50;99.90;;;;;;4993466;28;20179;-83
2023/07/31 09:49:12;;;;;;;7.80;4.60;;;19.30;99.90;;;;;;4993614;28;20191;-83
2023/07/31 09:51:39;;;;;;;7.88;4.85;;;19.20;99.90;;;;;;4992476;28;20178;-84
2023/07/31 09:54:15;;;;;;;6.57;4.63;;;19.30;99.90;;;;;;4996586;28;20175;-83
2023/07/31 09:56:44;;;;;;;9.75;5.45;;;19.30;99.90;;;;;;5074340;28;20196;-83
2023/07/31 09:59:12;;;;;;;8.48;5.38;;;19.10;99.90;;;;;;5074248;28;20219;-84
2023/07/31 10:01:40;;;;;;;8.68;5.38;;;19.10;99.90;;;;;;5074258;28;20175;-84
2023/07/31 10:04:08;;;;;;;8.60;5.63;;;19.10;99.90;;;;;;5073521;28;20279;-82
2023/07/31 10:06:35;;;;;;;6.38;5.30;;;19.30;99.90;;;;;;5055836;28;20169;-83
2023/07/31 10:09:03;;;;;;;9.63;5.45;;;19.30;99.90;;;;;;5074045;28;20238;-84
2023/07/31 10:11:33;;;;;;;8.60;5.43;;;19.10;99.90;;;;;;5073996;28;20247;-82
2023/07/31 10:13:59;;;;;;;7.22;5.22;;;19.10;99.90;;;;;;5073729;28;20176;-83
2023/07/31 10:16:25;;;;;;;9.18;5.80;;;18.90;99.90;;;;;;5074189;28;20200;-82
2023/07/31 10:18:52;;;;;;;9.85;5.78;;;18.90;99.90;;;;;;5073760;28;20180;-83
2023/07/31 10:21:18;;;;;;;6.68;5.20;;;19.10;99.90;;;;;;5073761;28;20255;-83
2023/07/31 10:23:44;;;;;;;7.80;5.35;;;19.20;99.90;;;;;;5073503;28;20303;-84
2023/07/31 10:26:13;;;;;;;11.38;5.50;;;19.20;99.90;;;;;;5073446;28;20161;-83
2023/07/31 10:28:39;;;;;;;8.43;5.63;;;19.20;99.90;;;;;;5072898;28;20245;-84
2023/07/31 10:31:06;;;;;;;7.80;5.90;;;19.50;99.90;;;;;;5055799;28;20687;-83
2023/07/31 10:33:31;;;;;;;10.95;5.30;;;19.60;99.90;;;;;;5073099;28;20229;-84
2023/07/31 10:36:19;;;;;;;8.05;5.97;;;19.50;99.90;;;;;;5073678;28;20173;-82
2023/07/31 10:38:48;;;;;;;10.15;5.10;;;19.40;99.90;;;;;;5055396;28;20527;-82
2023/07/31 10:41:14;;;;;;;8.93;5.10;;;19.40;99.90;;;;;;5073106;28;20530;-82
2023/07/31 10:43:40;;;;;;;8.00;5.55;;;19.40;99.90;;;;;;5073110;28;20231;-83
2023/07/31 10:46:13;;;;;;;10.88;5.80;;;19.40;99.90;;;;;;5073479;28;20623;-83
2023/07/31 10:48:41;;;;;;;9.65;5.88;;;19.50;99.90;;;;;;5073065;28;20176;-83
2023/07/31 10:51:09;;;;;;;8.90;5.28;;;19.70;99.90;;;;;;5073109;28;20169;-82
2023/07/31 10:53:36;;;;;;;9.07;5.10;;;19.80;99.90;;;;;;5073048;28;20169;-83
2023/07/31 10:56:04;;;;;;;9.52;5.40;;;19.70;99.90;;;;;;5072635;28;20312;-83
2023/07/31 10:58:31;;;;;;;8.20;5.85;;;19.80;99.90;;;;;;5073627;28;20191;-82
2023/07/31 11:00:59;;;;;;;9.48;5.60;;;20.00;99.90;;;;;;5073253;28;20168;-83
2023/07/31 11:03:41;;;;;;;11.43;5.28;;;20.10;99.90;;;;;;5073262;28;20216;-83
2023/07/31 11:06:07;;;;;;;7.93;4.90;;;20.20;99.90;;;;;;5073295;28;20226;-83
2023/07/31 11:08:34;;;;;;;9.82;5.07;;;20.30;99.90;;;;;;5054981;28;20578;-83
2023/07/31 11:11:02;;;;;;;9.65;4.90;;;20.30;99.90;;;;;;5072470;28;20172;-83
2023/07/31 11:13:44;;;;;;;9.20;5.45;;;20.40;99.90;;;;;;5073770;28;20261;-82
2023/07/31 11:16:14;;;;;;;8.27;5.07;;;20.60;99.90;;;;;;5073941;28;20689;-83
2023/07/31 11:18:45;;;;;;;8.15;5.03;;;20.80;99.90;;;;;;5074401;28;20234;-83
2023/07/31 11:21:21;;;;;;;8.50;4.60;;;21.00;99.90;;;;;;5074653;28;20219;-82
2023/07/31 11:23:57;;;;;;;7.07;4.85;;;21.00;99.90;;;;;;5074822;28;20203;-84
2023/07/31 11:26:24;;;;;;;8.93;5.13;;;21.00;99.90;;;;;;5073490;28;20168;-83
2023/07/31 11:28:50;;;;;;;10.38;5.40;;;21.00;99.90;;;;;;5074263;28;20195;-85
2023/07/31 11:31:16;;;;;;;7.75;5.22;;;20.90;99.90;;;;;;5074058;28;20168;-82
2023/07/31 11:33:42;;;;;;;8.73;4.85;;;20.80;99.90;;;;;;5054807;28;20164;-82
2023/07/31 11:36:17;;;;;;;9.18;5.20;;;20.70;99.90;;;;;;5073394;28;20172;-84
2023/07/31 11:38:43;;;;;;;7.80;5.18;;;20.60;99.90;;;;;;5073178;28;20172;-84
2023/07/31 11:41:09;;;;;;;7.93;5.72;;;20.50;99.90;;;;;;5076625;28;20196;-84
2023/07/31 11:43:36;;;;;;;6.32;5.00;;;20.50;99.90;;;;;;5077314;28;20228;-84
2023/07/31 11:46:02;;;;;;;9.18;5.30;;;20.50;99.90;;;;;;5077117;28;20188;-83
2023/07/31 11:48:35;;;;;;;12.52;5.50;;;20.50;99.90;;;;;;5058508;28;20662;-84
2023/07/31 11:51:05;;;;;;;6.75;4.88;;;20.50;99.90;;;;;;5059035;28;20169;-83
2023/07/31 11:53:51;;;;;;;7.63;5.40;;;20.50;99.90;;;;;;5076123;28;20251;-84
2023/07/31 11:56:18;;;;;;;8.20;5.13;;;20.40;99.90;;;;;;5076718;28;20647;-83
2023/07/31 11:58:50;;;;;;;8.25;5.40;;;20.40;99.90;;;;;;5076785;28;20169;-83
2023/07/31 12:01:22;;;;;;;11.38;5.40;;;20.40;99.90;;;;;;5076554;28;20623;-83
2023/07/31 12:03:49;;;;;;;9.38;4.97;;;20.50;99.90;;;;;;5076127;28;20557;-83
2023/07/31 12:06:14;;;;;;;8.15;4.68;;;20.60;99.90;;;;;;5076408;28;20262;-82
2023/07/31 12:08:40;;;;;;;7.13;5.43;;;20.80;99.90;;;;;;5076733;28;20172;-82
2023/07/31 12:11:09;;;;;;;7.38;4.80;;;21.00;99.90;;;;;;5077502;28;20179;-82
2023/07/31 12:13:35;;;;;;;11.80;4.93;;;21.10;99.90;;;;;;5077434;28;20172;-83
2023/07/31 12:16:03;;;;;;;8.55;5.43;;;21.30;99.90;;;;;;5077482;28;20161;-82
2023/07/31 12:18:30;;;;;;;8.18;5.03;;;21.20;99.90;;;;;;5077988;28;20230;-82
2023/07/31 12:20:58;;;;;;;7.60;4.68;;;21.20;99.90;;;;;;5077599;28;20662;-81
2023/07/31 12:23:28;;;;;;;7.50;5.10;;;21.40;99.90;;;;;;5076679;28;20212;-83
2023/07/31 12:26:09;;;;;;;7.75;5.00;;;21.10;99.90;;;;;;5077247;28;20207;-82
2023/07/31 12:28:42;;;;;;;10.20;5.47;;;21.00;99.90;;;;;;5077651;28;20219;-83
2023/07/31 12:31:11;;;;;;;11.10;5.47;;;21.10;99.90;;;;;;5076950;28;20175;-81
2023/07/31 12:33:38;;;;;;;9.20;5.18;;;21.10;99.90;;;;;;5076471;28;20200;-82
2023/07/31 12:36:09;;;;;;;9.43;5.32;;;21.10;99.90;;;;;;5058272;28;20226;-82
2023/07/31 12:38:35;;;;;;;9.98;5.50;;;21.00;99.90;;;;;;5076391;28;20632;-81
2023/07/31 12:41:01;;;;;;;9.43;5.40;;;21.00;99.90;;;;;;5076355;28;20298;-84
2023/07/31 12:43:26;;;;;;;7.85;5.80;;;21.10;99.90;;;;;;5075716;28;20765;-81
2023/07/31 12:45:54;;;;;;;7.00;4.75;;;21.10;99.90;;;;;;5077094;28;20608;-82